Skyfall — D5IC2 — position and weather

sailwx.info

Track history (hours):
 
Tides and Currents Weather Stations Pressure Air Temp Water Temp Dewpoint Dewpoint Depression Visibility Wind Speed Wind Dir Waves Ship Positions

Skyfall

Last reported at 2017-Sep-25 06:03 UTC. Time now 2017-Sep-25 15:19 UTC.
Position N 46°35' E 031°18'.

Length 199 m; draft 10.6 m.

Type: Cargo ship. MMSI: 636016848.

Date/timePositionNaut miles runAvg speedWind from/ knotsBaromVisibWave heightAir tempDewpointWater temp
2017-Sep-25 06:03N 46°35' E 031°18'0 0.0
2017-Sep-25 05:54N 46°35' E 031°18'  
2017-Sep-22 00:26N 46°35' E 031°18'0 0.1
2017-Sep-21 23:56N 46°35' E 031°18'0 0.0
2017-Sep-21 23:29N 46°35' E 031°18'0 0.1
2017-Sep-21 22:59N 46°35' E 031°18'0 0.1
2017-Sep-21 22:29N 46°35' E 031°18'0 0.1
2017-Sep-21 21:59N 46°35' E 031°18'0 0.1
2017-Sep-21 19:38N 46°35' E 031°18'0 0.2
2017-Sep-21 19:26N 46°35' E 031°18'0 0.2
2017-Sep-21 18:59N 46°35' E 031°18'0 0.0
2017-Sep-21 04:53N 46°35' E 031°18'0 0.0
2017-Sep-21 04:29N 46°35' E 031°18'0 0.0
2017-Sep-21 03:59N 46°35' E 031°18'0 0.0
2017-Sep-21 03:29N 46°35' E 031°18'0 0.0
2017-Sep-21 02:56N 46°35' E 031°18'0 0.0
2017-Sep-20 20:54N 46°35' E 031°18'0 0.0
2017-Sep-20 20:29N 46°35' E 031°18'0 0.0
2017-Sep-20 19:56N 46°35' E 031°18'0 0.0
2017-Sep-20 19:14N 46°35' E 031°18'0 0.0
2017-Sep-20 18:53N 46°35' E 031°18'0 0.0
2017-Sep-20 18:29N 46°35' E 031°18'0 0.0
2017-Sep-20 17:53N 46°35' E 031°18'0 0.0
2017-Sep-19 00:02N 46°35' E 031°18'0 0.0
2017-Sep-18 13:44N 46°35' E 031°18'0 0.1
2017-Sep-18 12:46N 46°35' E 031°18'1 5.6
2017-Sep-18 12:30N 46°35' E 031°20'5 9.0
2017-Sep-18 12:00N 46°35' E 031°27'4 7.5
2017-Sep-18 11:30N 46°35' E 031°32'4 8.8
2017-Sep-18 11:00N 46°36' E 031°38'4 9.0
2017-Sep-18 10:30N 46°36' E 031°45'4 8.8
2017-Sep-18 10:00N 46°37' E 031°51'4 8.5
2017-Sep-18 09:30N 46°39' E 031°56'4 8.9
2017-Sep-18 09:00N 46°44' E 031°56'4 7.7
2017-Sep-18 08:30N 46°47' E 031°53'4 8.2
2017-Sep-18 08:00N 46°51' E 031°57'2 3.0
2017-Sep-18 07:30N 46°51' E 031°59'0 0.2
2017-Sep-18 07:00N 46°51' E 031°59'0 0.0
2017-Sep-18 06:30N 46°51' E 031°59'0 0.0
2017-Sep-18 06:00N 46°51' E 031°59'0 0.0
2017-Sep-18 05:31N 46°51' E 031°59'0 0.0
2017-Sep-18 04:59N 46°51' E 031°59'0 0.0
2017-Sep-18 04:29N 46°51' E 031°59'0 0.0
2017-Sep-18 03:59N 46°51' E 031°59'0 0.0
2017-Sep-18 03:29N 46°51' E 031°59'0 0.0
2017-Sep-18 02:59N 46°51' E 031°59'0 0.0
2017-Sep-18 02:29N 46°51' E 031°59'0 0.0
2017-Sep-18 01:58N 46°51' E 031°59'0 0.0
2017-Sep-18 01:29N 46°51' E 031°59'0 0.0
2017-Sep-18 00:59N 46°51' E 031°59'0 0.0
2017-Sep-18 00:29N 46°51' E 031°59'0 0.0
2017-Sep-17 23:59N 46°51' E 031°59'0 0.0
2017-Sep-17 23:28N 46°51' E 031°59'0 0.0
2017-Sep-17 22:58N 46°51' E 031°59'0 0.0
2017-Sep-17 22:28N 46°51' E 031°59'0 0.0
2017-Sep-17 21:59N 46°51' E 031°59'0 0.0
2017-Sep-17 21:29N 46°51' E 031°59'0 0.0
2017-Sep-17 20:58N 46°51' E 031°59'0 0.0
2017-Sep-17 20:29N 46°51' E 031°59'0 0.0
2017-Sep-17 19:59N 46°51' E 031°59'0 0.0
2017-Sep-17 19:29N 46°51' E 031°59'0 0.0
2017-Sep-17 18:58N 46°51' E 031°59'0 0.0
2017-Sep-17 18:29N 46°51' E 031°59'0 0.0
2017-Sep-17 17:59N 46°51' E 031°59'0 0.0
2017-Sep-17 17:29N 46°51' E 031°59'0 0.0
2017-Sep-17 16:58N 46°51' E 031°59'0 0.0
2017-Sep-17 16:28N 46°51' E 031°59'0 0.0
2017-Sep-17 15:59N 46°51' E 031°59'0 0.0
2017-Sep-17 15:29N 46°51' E 031°59'0 0.0
2017-Sep-17 14:58N 46°51' E 031°59'0 0.0
2017-Sep-17 14:29N 46°51' E 031°59'0 0.0
2017-Sep-17 13:59N 46°51' E 031°59'0 0.0
2017-Sep-17 13:28N 46°51' E 031°59'0 0.0
2017-Sep-17 12:58N 46°51' E 031°59'0 0.0
2017-Sep-17 12:29N 46°51' E 031°59'0 0.0
2017-Sep-17 11:58N 46°51' E 031°59'0 0.0
2017-Sep-17 11:29N 46°51' E 031°59'0 0.0
2017-Sep-17 10:59N 46°51' E 031°59'0 0.0
2017-Sep-17 10:29N 46°51' E 031°59'0 0.0
2017-Sep-17 09:59N 46°51' E 031°59'0 0.0
2017-Sep-17 09:29N 46°51' E 031°59'0 0.0
2017-Sep-17 08:59N 46°51' E 031°59'0 0.0
2017-Sep-17 08:29N 46°51' E 031°59'0 0.0
2017-Sep-17 07:59N 46°51' E 031°59'0 0.0
2017-Sep-17 07:28N 46°51' E 031°59'0 0.0
2017-Sep-17 06:58N 46°51' E 031°59'0 0.0
2017-Sep-17 06:28N 46°51' E 031°59'0 0.0
2017-Sep-17 05:59N 46°51' E 031°59'0 0.0
2017-Sep-17 05:28N 46°51' E 031°59'0 0.0
2017-Sep-17 04:58N 46°51' E 031°59'0 0.0
2017-Sep-17 04:28N 46°51' E 031°59'0 0.0
2017-Sep-17 03:58N 46°51' E 031°59'0 0.0
2017-Sep-17 03:28N 46°51' E 031°59'0 0.0
2017-Sep-17 02:58N 46°51' E 031°59'0 0.0
2017-Sep-17 02:28N 46°51' E 031°59'0 0.0
2017-Sep-17 01:58N 46°51' E 031°59'0 0.0
2017-Sep-17 01:28N 46°51' E 031°59'0 0.0
2017-Sep-17 00:58N 46°51' E 031°59'0 0.0
2017-Sep-17 00:28N 46°51' E 031°59'0 0.0
2017-Sep-16 23:58N 46°51' E 031°59'0 0.0
2017-Sep-16 23:28N 46°51' E 031°59'0 0.0
2017-Sep-16 22:58N 46°51' E 031°59'0 0.0
2017-Sep-16 22:28N 46°51' E 031°59'0 0.0
2017-Sep-16 21:58N 46°51' E 031°59'0 0.0
2017-Sep-16 21:28N 46°51' E 031°59'0 0.0
2017-Sep-16 20:55N 46°51' E 031°59'0 0.0
2017-Sep-16 20:29N 46°51' E 031°59'0 0.0
2017-Sep-16 19:58N 46°51' E 031°59'0 0.0
2017-Sep-16 19:28N 46°51' E 031°59'0 0.0
2017-Sep-16 18:58N 46°51' E 031°59'0 0.0
2017-Sep-16 18:28N 46°51' E 031°59'0 0.0
2017-Sep-16 17:58N 46°51' E 031°59'0 0.0
2017-Sep-16 17:29N 46°51' E 031°59'0 0.0
2017-Sep-16 16:58N 46°51' E 031°59'0 0.0
2017-Sep-16 16:28N 46°51' E 031°59'0 0.0
2017-Sep-16 15:58N 46°51' E 031°59'0 0.0
2017-Sep-16 15:28N 46°51' E 031°59'0 0.0
2017-Sep-16 14:58N 46°51' E 031°59'0 0.0
2017-Sep-16 14:28N 46°51' E 031°59'0 0.0
2017-Sep-16 13:58N 46°51' E 031°59'0 0.0
2017-Sep-16 13:28N 46°51' E 031°59'0 0.0
2017-Sep-16 12:58N 46°51' E 031°59'0 0.0
2017-Sep-16 12:28N 46°51' E 031°59'0 0.0
2017-Sep-16 11:58N 46°51' E 031°59'0 0.0
2017-Sep-16 11:28N 46°51' E 031°59'0 0.0
2017-Sep-16 10:58N 46°51' E 031°59'0 0.0
2017-Sep-16 10:28N 46°51' E 031°59'0 0.0
2017-Sep-16 09:58N 46°51' E 031°59'0 0.0
2017-Sep-16 09:28N 46°51' E 031°59'0 0.0
2017-Sep-16 08:58N 46°51' E 031°59'0 0.0
2017-Sep-16 08:28N 46°51' E 031°59'0 0.0
2017-Sep-16 07:58N 46°51' E 031°59'0 0.0
2017-Sep-16 07:28N 46°51' E 031°59'0 0.0
2017-Sep-16 06:58N 46°51' E 031°59'0 0.0
2017-Sep-16 06:28N 46°51' E 031°59'0 0.0
2017-Sep-16 05:58N 46°51' E 031°59'0 0.0
2017-Sep-16 05:28N 46°51' E 031°59'0 0.0
2017-Sep-16 04:58N 46°51' E 031°59'0 0.0
2017-Sep-16 04:28N 46°51' E 031°59'0 0.0
2017-Sep-16 03:52N 46°51' E 031°59'0 0.0
2017-Sep-16 03:28N 46°51' E 031°59'0 0.0
2017-Sep-16 02:58N 46°51' E 031°59'0 0.0
2017-Sep-16 02:28N 46°51' E 031°59'0 0.0
2017-Sep-16 01:58N 46°51' E 031°59'0 0.0
2017-Sep-16 01:28N 46°51' E 031°59'0 0.0
2017-Sep-16 00:58N 46°51' E 031°59'0 0.0
2017-Sep-16 00:28N 46°51' E 031°59'0 0.0
2017-Sep-15 23:58N 46°51' E 031°59'0 0.0
2017-Sep-15 23:28N 46°51' E 031°59'0 0.0
2017-Sep-15 22:58N 46°51' E 031°59'0 0.0
2017-Sep-15 22:28N 46°51' E 031°59'0 0.0
2017-Sep-15 21:58N 46°51' E 031°59'0 0.0
2017-Sep-15 21:28N 46°51' E 031°59'0 0.0
2017-Sep-15 20:58N 46°51' E 031°59'0 0.0
2017-Sep-15 20:28N 46°51' E 031°59'0 0.0
2017-Sep-15 19:58N 46°51' E 031°59'0 0.0
2017-Sep-15 19:28N 46°51' E 031°59'0 0.0
2017-Sep-15 18:58N 46°51' E 031°59'0 0.0
2017-Sep-15 18:28N 46°51' E 031°59'0 0.0
2017-Sep-15 17:58N 46°51' E 031°59'0 0.0
2017-Sep-15 17:28N 46°51' E 031°59'0 0.0
2017-Sep-15 16:58N 46°51' E 031°59'0 0.0
2017-Sep-15 16:28N 46°51' E 031°59'0 0.0
2017-Sep-15 15:58N 46°51' E 031°59'0 0.0
2017-Sep-15 15:28N 46°51' E 031°59'0 0.0
2017-Sep-15 14:58N 46°51' E 031°59'0 0.0
2017-Sep-15 14:28N 46°51' E 031°59'0 0.0
2017-Sep-15 13:55N 46°51' E 031°59'0 0.0
2017-Sep-15 13:28N 46°51' E 031°59'0 0.0
2017-Sep-15 12:58N 46°51' E 031°59'0 0.0
2017-Sep-15 12:28N 46°51' E 031°59'0 0.0
2017-Sep-15 11:58N 46°51' E 031°59'0 0.0
2017-Sep-15 11:28N 46°51' E 031°59'0 0.0
2017-Sep-15 10:58N 46°51' E 031°59'0 0.1
2017-Sep-15 10:31N 46°51' E 031°59'1 2.8
2017-Sep-15 10:01N 46°51' E 031°57'4 7.2
2017-Sep-15 09:31N 46°48' E 031°53'510.6
2017-Sep-15 09:00N 46°43' E 031°56'611.3
2017-Sep-15 08:31N 46°38' E 031°54'611.7
2017-Sep-15 08:01N 46°36' E 031°46'712.0
2017-Sep-15 07:28N 46°35' E 031°37'810.5
2017-Sep-15 06:44N 46°35' E 031°25'312.7
2017-Sep-15 06:29N 46°35' E 031°21'  
Track history (hours):
 
Tides and Currents Weather Stations Pressure Air Temp Water Temp Dewpoint Dewpoint Depression Visibility Wind Speed Wind Dir Waves Ship Positions

Skyfall

Last reported at 2017-Sep-25 06:03 UTC. Time now 2017-Sep-25 15:19 UTC.
Position N 46°35' E 031°18'.

Length 199 m; draft 10.6 m.

Type: Cargo ship. MMSI: 636016848.

Date/timePositionNaut miles runAvg speedWind from/ knotsBaromVisibWave heightAir tempDewpointWater temp
2017-Sep-25 06:03N 46°35' E 031°18'0 0.0
2017-Sep-25 05:54N 46°35' E 031°18'  
2017-Sep-22 00:26N 46°35' E 031°18'0 0.1
2017-Sep-21 23:56N 46°35' E 031°18'0 0.0
2017-Sep-21 23:29N 46°35' E 031°18'0 0.1
2017-Sep-21 22:59N 46°35' E 031°18'0 0.1
2017-Sep-21 22:29N 46°35' E 031°18'0 0.1
2017-Sep-21 21:59N 46°35' E 031°18'0 0.1
2017-Sep-21 19:38N 46°35' E 031°18'0 0.2
2017-Sep-21 19:26N 46°35' E 031°18'0 0.2
2017-Sep-21 18:59N 46°35' E 031°18'0 0.0
2017-Sep-21 04:53N 46°35' E 031°18'0 0.0
2017-Sep-21 04:29N 46°35' E 031°18'0 0.0
2017-Sep-21 03:59N 46°35' E 031°18'0 0.0
2017-Sep-21 03:29N 46°35' E 031°18'0 0.0
2017-Sep-21 02:56N 46°35' E 031°18'0 0.0
2017-Sep-20 20:54N 46°35' E 031°18'0 0.0
2017-Sep-20 20:29N 46°35' E 031°18'0 0.0
2017-Sep-20 19:56N 46°35' E 031°18'0 0.0
2017-Sep-20 19:14N 46°35' E 031°18'0 0.0
2017-Sep-20 18:53N 46°35' E 031°18'0 0.0
2017-Sep-20 18:29N 46°35' E 031°18'0 0.0
2017-Sep-20 17:53N 46°35' E 031°18'0 0.0
2017-Sep-19 00:02N 46°35' E 031°18'0 0.0
2017-Sep-18 13:44N 46°35' E 031°18'0 0.1
2017-Sep-18 12:46N 46°35' E 031°18'1 5.6
2017-Sep-18 12:30N 46°35' E 031°20'5 9.0
2017-Sep-18 12:00N 46°35' E 031°27'4 7.5
2017-Sep-18 11:30N 46°35' E 031°32'4 8.8
2017-Sep-18 11:00N 46°36' E 031°38'4 9.0
2017-Sep-18 10:30N 46°36' E 031°45'4 8.8
2017-Sep-18 10:00N 46°37' E 031°51'4 8.5
2017-Sep-18 09:30N 46°39' E 031°56'4 8.9
2017-Sep-18 09:00N 46°44' E 031°56'4 7.7
2017-Sep-18 08:30N 46°47' E 031°53'4 8.2
2017-Sep-18 08:00N 46°51' E 031°57'2 3.0
2017-Sep-18 07:30N 46°51' E 031°59'0 0.2
2017-Sep-18 07:00N 46°51' E 031°59'0 0.0
2017-Sep-18 06:30N 46°51' E 031°59'0 0.0
2017-Sep-18 06:00N 46°51' E 031°59'0 0.0
2017-Sep-18 05:31N 46°51' E 031°59'0 0.0
2017-Sep-18 04:59N 46°51' E 031°59'0 0.0
2017-Sep-18 04:29N 46°51' E 031°59'0 0.0
2017-Sep-18 03:59N 46°51' E 031°59'0 0.0
2017-Sep-18 03:29N 46°51' E 031°59'0 0.0
2017-Sep-18 02:59N 46°51' E 031°59'0 0.0
2017-Sep-18 02:29N 46°51' E 031°59'0 0.0
2017-Sep-18 01:58N 46°51' E 031°59'0 0.0
2017-Sep-18 01:29N 46°51' E 031°59'0 0.0
2017-Sep-18 00:59N 46°51' E 031°59'0 0.0
2017-Sep-18 00:29N 46°51' E 031°59'0 0.0
2017-Sep-17 23:59N 46°51' E 031°59'0 0.0
2017-Sep-17 23:28N 46°51' E 031°59'0 0.0
2017-Sep-17 22:58N 46°51' E 031°59'0 0.0
2017-Sep-17 22:28N 46°51' E 031°59'0 0.0
2017-Sep-17 21:59N 46°51' E 031°59'0 0.0
2017-Sep-17 21:29N 46°51' E 031°59'0 0.0
2017-Sep-17 20:58N 46°51' E 031°59'0 0.0
2017-Sep-17 20:29N 46°51' E 031°59'0 0.0
2017-Sep-17 19:59N 46°51' E 031°59'0 0.0
2017-Sep-17 19:29N 46°51' E 031°59'0 0.0
2017-Sep-17 18:58N 46°51' E 031°59'0 0.0
2017-Sep-17 18:29N 46°51' E 031°59'0 0.0
2017-Sep-17 17:59N 46°51' E 031°59'0 0.0
2017-Sep-17 17:29N 46°51' E 031°59'0 0.0
2017-Sep-17 16:58N 46°51' E 031°59'0 0.0
2017-Sep-17 16:28N 46°51' E 031°59'0 0.0
2017-Sep-17 15:59N 46°51' E 031°59'0 0.0
2017-Sep-17 15:29N 46°51' E 031°59'0 0.0
2017-Sep-17 14:58N 46°51' E 031°59'0 0.0
2017-Sep-17 14:29N 46°51' E 031°59'0 0.0
2017-Sep-17 13:59N 46°51' E 031°59'0 0.0
2017-Sep-17 13:28N 46°51' E 031°59'0 0.0
2017-Sep-17 12:58N 46°51' E 031°59'0 0.0
2017-Sep-17 12:29N 46°51' E 031°59'0 0.0
2017-Sep-17 11:58N 46°51' E 031°59'0 0.0
2017-Sep-17 11:29N 46°51' E 031°59'0 0.0
2017-Sep-17 10:59N 46°51' E 031°59'0 0.0
2017-Sep-17 10:29N 46°51' E 031°59'0 0.0
2017-Sep-17 09:59N 46°51' E 031°59'0 0.0
2017-Sep-17 09:29N 46°51' E 031°59'0 0.0
2017-Sep-17 08:59N 46°51' E 031°59'0 0.0
2017-Sep-17 08:29N 46°51' E 031°59'0 0.0
2017-Sep-17 07:59N 46°51' E 031°59'0 0.0
2017-Sep-17 07:28N 46°51' E 031°59'0 0.0
2017-Sep-17 06:58N 46°51' E 031°59'0 0.0
2017-Sep-17 06:28N 46°51' E 031°59'0 0.0
2017-Sep-17 05:59N 46°51' E 031°59'0 0.0
2017-Sep-17 05:28N 46°51' E 031°59'0 0.0
2017-Sep-17 04:58N 46°51' E 031°59'0 0.0
2017-Sep-17 04:28N 46°51' E 031°59'0 0.0
2017-Sep-17 03:58N 46°51' E 031°59'0 0.0
2017-Sep-17 03:28N 46°51' E 031°59'0 0.0
2017-Sep-17 02:58N 46°51' E 031°59'0 0.0
2017-Sep-17 02:28N 46°51' E 031°59'0 0.0
2017-Sep-17 01:58N 46°51' E 031°59'0 0.0
2017-Sep-17 01:28N 46°51' E 031°59'0 0.0
2017-Sep-17 00:58N 46°51' E 031°59'0 0.0
2017-Sep-17 00:28N 46°51' E 031°59'0 0.0
2017-Sep-16 23:58N 46°51' E 031°59'0 0.0
2017-Sep-16 23:28N 46°51' E 031°59'0 0.0
2017-Sep-16 22:58N 46°51' E 031°59'0 0.0
2017-Sep-16 22:28N 46°51' E 031°59'0 0.0
2017-Sep-16 21:58N 46°51' E 031°59'0 0.0
2017-Sep-16 21:28N 46°51' E 031°59'0 0.0
2017-Sep-16 20:55N 46°51' E 031°59'0 0.0
2017-Sep-16 20:29N 46°51' E 031°59'0 0.0
2017-Sep-16 19:58N 46°51' E 031°59'0 0.0
2017-Sep-16 19:28N 46°51' E 031°59'0 0.0
2017-Sep-16 18:58N 46°51' E 031°59'0 0.0
2017-Sep-16 18:28N 46°51' E 031°59'0 0.0
2017-Sep-16 17:58N 46°51' E 031°59'0 0.0
2017-Sep-16 17:29N 46°51' E 031°59'0 0.0
2017-Sep-16 16:58N 46°51' E 031°59'0 0.0
2017-Sep-16 16:28N 46°51' E 031°59'0 0.0
2017-Sep-16 15:58N 46°51' E 031°59'0 0.0
2017-Sep-16 15:28N 46°51' E 031°59'0 0.0
2017-Sep-16 14:58N 46°51' E 031°59'0 0.0
2017-Sep-16 14:28N 46°51' E 031°59'0 0.0
2017-Sep-16 13:58N 46°51' E 031°59'0 0.0
2017-Sep-16 13:28N 46°51' E 031°59'0 0.0
2017-Sep-16 12:58N 46°51' E 031°59'0 0.0
2017-Sep-16 12:28N 46°51' E 031°59'0 0.0
2017-Sep-16 11:58N 46°51' E 031°59'0 0.0
2017-Sep-16 11:28N 46°51' E 031°59'0 0.0
2017-Sep-16 10:58N 46°51' E 031°59'0 0.0
2017-Sep-16 10:28N 46°51' E 031°59'0 0.0
2017-Sep-16 09:58N 46°51' E 031°59'0 0.0
2017-Sep-16 09:28N 46°51' E 031°59'0 0.0
2017-Sep-16 08:58N 46°51' E 031°59'0 0.0
2017-Sep-16 08:28N 46°51' E 031°59'0 0.0
2017-Sep-16 07:58N 46°51' E 031°59'0 0.0
2017-Sep-16 07:28N 46°51' E 031°59'0 0.0
2017-Sep-16 06:58N 46°51' E 031°59'0 0.0
2017-Sep-16 06:28N 46°51' E 031°59'0 0.0
2017-Sep-16 05:58N 46°51' E 031°59'0 0.0
2017-Sep-16 05:28N 46°51' E 031°59'0 0.0
2017-Sep-16 04:58N 46°51' E 031°59'0 0.0
2017-Sep-16 04:28N 46°51' E 031°59'0 0.0
2017-Sep-16 03:52N 46°51' E 031°59'0 0.0
2017-Sep-16 03:28N 46°51' E 031°59'0 0.0
2017-Sep-16 02:58N 46°51' E 031°59'0 0.0
2017-Sep-16 02:28N 46°51' E 031°59'0 0.0
2017-Sep-16 01:58N 46°51' E 031°59'0 0.0
2017-Sep-16 01:28N 46°51' E 031°59'0 0.0
2017-Sep-16 00:58N 46°51' E 031°59'0 0.0
2017-Sep-16 00:28N 46°51' E 031°59'0 0.0
2017-Sep-15 23:58N 46°51' E 031°59'0 0.0
2017-Sep-15 23:28N 46°51' E 031°59'0 0.0
2017-Sep-15 22:58N 46°51' E 031°59'0 0.0
2017-Sep-15 22:28N 46°51' E 031°59'0 0.0
2017-Sep-15 21:58N 46°51' E 031°59'0 0.0
2017-Sep-15 21:28N 46°51' E 031°59'0 0.0
2017-Sep-15 20:58N 46°51' E 031°59'0 0.0
2017-Sep-15 20:28N 46°51' E 031°59'0 0.0
2017-Sep-15 19:58N 46°51' E 031°59'0 0.0
2017-Sep-15 19:28N 46°51' E 031°59'0 0.0
2017-Sep-15 18:58N 46°51' E 031°59'0 0.0
2017-Sep-15 18:28N 46°51' E 031°59'0 0.0
2017-Sep-15 17:58N 46°51' E 031°59'0 0.0
2017-Sep-15 17:28N 46°51' E 031°59'0 0.0
2017-Sep-15 16:58N 46°51' E 031°59'0 0.0
2017-Sep-15 16:28N 46°51' E 031°59'0 0.0
2017-Sep-15 15:58N 46°51' E 031°59'0 0.0
2017-Sep-15 15:28N 46°51' E 031°59'0 0.0
2017-Sep-15 14:58N 46°51' E 031°59'0 0.0
2017-Sep-15 14:28N 46°51' E 031°59'0 0.0
2017-Sep-15 13:55N 46°51' E 031°59'0 0.0
2017-Sep-15 13:28N 46°51' E 031°59'0 0.0
2017-Sep-15 12:58N 46°51' E 031°59'0 0.0
2017-Sep-15 12:28N 46°51' E 031°59'0 0.0
2017-Sep-15 11:58N 46°51' E 031°59'0 0.0
2017-Sep-15 11:28N 46°51' E 031°59'0 0.0
2017-Sep-15 10:58N 46°51' E 031°59'0 0.1
2017-Sep-15 10:31N 46°51' E 031°59'1 2.8
2017-Sep-15 10:01N 46°51' E 031°57'4 7.2
2017-Sep-15 09:31N 46°48' E 031°53'510.6
2017-Sep-15 09:00N 46°43' E 031°56'611.3
2017-Sep-15 08:31N 46°38' E 031°54'611.7
2017-Sep-15 08:01N 46°36' E 031°46'712.0
2017-Sep-15 07:28N 46°35' E 031°37'810.5
2017-Sep-15 06:44N 46°35' E 031°25'312.7
2017-Sep-15 06:29N 46°35' E 031°21'  

Dump ship's entire track history